createdAt,value
2023-05-10T00:00:30.287Z,1.90
2023-05-10T00:03:06.512Z,2.00
2023-05-10T00:05:40.818Z,1.73
2023-05-10T00:08:14.783Z,2.00
2023-05-10T00:10:48.821Z,1.70
2023-05-10T00:13:22.490Z,2.20
2023-05-10T00:15:55.893Z,1.70
2023-05-10T00:18:31.233Z,1.90
2023-05-10T00:21:05.209Z,2.20
2023-05-10T00:23:39.246Z,2.03
2023-05-10T00:26:13.385Z,1.73
2023-05-10T00:28:47.217Z,2.20
2023-05-10T00:31:21.557Z,2.40
2023-05-10T00:33:57.603Z,2.37
2023-05-10T00:36:32.555Z,2.40
2023-05-10T00:39:06.334Z,2.40
2023-05-10T00:41:40.208Z,2.43
2023-05-10T00:44:14.028Z,2.40
2023-05-10T00:46:49.258Z,2.70
2023-05-10T00:49:24.459Z,2.77
2023-05-10T00:51:58.307Z,3.00
2023-05-10T00:54:33.033Z,3.17
2023-05-10T00:57:07.297Z,2.63
2023-05-10T00:59:41.216Z,3.17
2023-05-10T01:02:15.739Z,3.20
2023-05-10T01:04:53.281Z,3.27
2023-05-10T01:07:27.102Z,3.97
2023-05-10T01:10:02.315Z,3.40
2023-05-10T01:12:38.590Z,3.60
2023-05-10T01:15:14.398Z,2.97
2023-05-10T01:17:50.499Z,2.87
2023-05-10T01:20:27.148Z,3.03
2023-05-10T01:23:33.354Z,3.47
2023-05-10T01:27:00.369Z,3.17
2023-05-10T01:30:15.955Z,2.40
2023-05-10T01:33:03.920Z,2.77
2023-05-10T01:35:47.426Z,3.30
2023-05-10T01:38:32.349Z,3.30
2023-05-10T01:41:21.102Z,3.33
2023-05-10T01:44:04.162Z,2.83
2023-05-10T01:46:40.246Z,3.13
2023-05-10T01:49:25.863Z,3.40
2023-05-10T01:52:08.894Z,3.30
2023-05-10T01:54:56.170Z,3.20
2023-05-10T01:57:41.483Z,2.90
2023-05-10T02:00:17.995Z,2.77
2023-05-10T02:02:54.231Z,3.30
2023-05-10T02:05:32.657Z,3.57
2023-05-10T02:08:10.012Z,3.50
2023-05-10T02:10:45.952Z,3.30
2023-05-10T02:13:21.409Z,3.70
2023-05-10T02:15:57.395Z,3.13
2023-05-10T02:18:32.514Z,3.17
2023-05-10T02:21:10.750Z,3.43
2023-05-10T02:23:47.613Z,4.03
2023-05-10T02:26:26.006Z,3.97
2023-05-10T02:29:04.499Z,4.03
2023-05-10T02:31:39.937Z,3.83
2023-05-10T02:34:15.247Z,4.23
2023-05-10T02:36:51.287Z,4.30
2023-05-10T02:39:27.448Z,4.00
2023-05-10T02:42:03.398Z,4.27
2023-05-10T02:44:39.054Z,4.10
2023-05-10T02:47:12.460Z,4.67
2023-05-10T02:49:46.059Z,4.50
2023-05-10T02:52:28.978Z,4.40
2023-05-10T02:55:07.509Z,4.30
2023-05-10T02:57:46.737Z,3.97
2023-05-10T03:00:22.233Z,4.10
2023-05-10T03:02:56.838Z,4.47
2023-05-10T03:05:30.380Z,4.27
2023-05-10T03:08:07.317Z,4.50
2023-05-10T03:11:05.844Z,3.70
2023-05-10T03:13:52.031Z,4.60
2023-05-10T03:16:36.848Z,4.13
2023-05-10T03:19:22.279Z,4.10
2023-05-10T03:22:02.415Z,4.27
2023-05-10T03:24:41.316Z,5.60
2023-05-10T03:27:18.332Z,4.23
2023-05-10T03:29:53.579Z,4.37
2023-05-10T03:32:28.237Z,4.87
2023-05-10T03:35:03.386Z,4.73
2023-05-10T03:37:37.445Z,4.20
2023-05-10T03:40:14.182Z,4.50
2023-05-10T03:42:48.227Z,4.83
2023-05-10T03:45:21.895Z,5.87
2023-05-10T03:47:56.629Z,6.60
2023-05-10T03:50:30.450Z,7.13
2023-05-10T03:53:04.433Z,6.57
2023-05-10T03:55:39.537Z,7.23
2023-05-10T03:58:14.228Z,7.37
2023-05-10T04:00:48.230Z,7.53
2023-05-10T04:03:22.454Z,7.43
2023-05-10T04:06:03.250Z,7.50
2023-05-10T04:08:37.854Z,7.40
2023-05-10T04:11:15.454Z,6.70
2023-05-10T04:13:49.480Z,6.63
2023-05-10T04:16:23.106Z,7.20
2023-05-10T04:18:56.589Z,6.40
2023-05-10T04:21:30.366Z,6.20
2023-05-10T04:24:04.134Z,7.50
2023-05-10T04:26:39.299Z,7.47
2023-05-10T04:29:13.073Z,7.60
2023-05-10T04:31:46.774Z,8.07
2023-05-10T04:34:20.314Z,8.67
2023-05-10T04:36:54.224Z,7.73
2023-05-10T04:39:28.180Z,8.17
2023-05-10T04:42:03.977Z,8.37
2023-05-10T04:44:38.457Z,8.50
2023-05-10T04:47:13.775Z,9.60
2023-05-10T04:49:47.301Z,9.50
2023-05-10T04:52:20.725Z,9.47
2023-05-10T04:54:54.496Z,10.07
2023-05-10T04:57:30.159Z,10.63
2023-05-10T05:00:04.582Z,10.63
2023-05-10T05:02:38.651Z,11.50
2023-05-10T05:05:12.935Z,11.13
2023-05-10T05:07:46.580Z,11.40
2023-05-10T05:10:20.749Z,10.63
2023-05-10T05:12:56.185Z,11.97
2023-05-10T05:15:31.345Z,11.67
2023-05-10T05:18:05.279Z,11.50
2023-05-10T05:20:39.393Z,12.20
2023-05-10T05:23:12.896Z,12.37
2023-05-10T05:25:46.893Z,12.63
2023-05-10T05:28:22.342Z,11.87
2023-05-10T05:30:55.853Z,11.60
2023-05-10T05:33:29.468Z,12.03
2023-05-10T05:36:06.775Z,13.63
2023-05-10T05:38:40.607Z,13.20
2023-05-10T05:41:15.313Z,13.27
2023-05-10T05:43:50.715Z,13.17
2023-05-10T05:46:24.244Z,12.60
2023-05-10T05:48:58.402Z,13.10
2023-05-10T05:51:32.318Z,13.93
2023-05-10T05:54:06.430Z,14.70
2023-05-10T05:56:40.423Z,14.13
2023-05-10T05:59:15.560Z,13.93
2023-05-10T06:01:49.415Z,14.70
2023-05-10T06:04:23.601Z,14.87
2023-05-10T06:06:57.378Z,14.27
2023-05-10T06:09:31.315Z,13.53
2023-05-10T06:12:05.434Z,12.80
2023-05-10T06:14:41.100Z,14.00
2023-05-10T06:17:14.474Z,13.90
2023-05-10T06:19:48.379Z,14.17
2023-05-10T06:22:23.616Z,13.43
2023-05-10T06:24:57.277Z,13.60
2023-05-10T06:27:31.607Z,13.57
2023-05-10T06:30:13.370Z,12.53
2023-05-10T06:32:47.917Z,13.03
2023-05-10T06:35:21.884Z,12.57
2023-05-10T06:37:55.857Z,12.83
2023-05-10T06:40:30.482Z,12.20
2023-05-10T06:43:04.372Z,13.00
2023-05-10T06:45:39.966Z,12.20
2023-05-10T06:48:13.727Z,12.90
2023-05-10T06:50:47.121Z,14.60
2023-05-10T06:53:20.914Z,14.13
2023-05-10T06:55:54.658Z,14.07
2023-05-10T06:58:28.467Z,14.87
2023-05-10T07:01:06.743Z,14.40
2023-05-10T07:03:40.386Z,13.87
2023-05-10T07:06:29.490Z,12.60
2023-05-10T07:09:07.303Z,13.90
2023-05-10T07:11:40.834Z,14.33
2023-05-10T07:14:15.243Z,14.60
2023-05-10T07:16:50.608Z,14.33
2023-05-10T07:19:24.840Z,14.43
2023-05-10T07:22:00.549Z,14.20
2023-05-10T07:24:36.013Z,12.37
2023-05-10T07:27:10.159Z,13.30
2023-05-10T07:29:44.632Z,13.20
2023-05-10T07:32:19.909Z,13.67
2023-05-10T07:34:53.776Z,13.97
2023-05-10T07:37:27.476Z,13.17
2023-05-10T07:40:02.668Z,14.67
2023-05-10T07:42:36.596Z,13.97
2023-05-10T07:45:11.671Z,13.90
2023-05-10T07:47:47.025Z,13.43
2023-05-10T07:50:20.894Z,13.73
2023-05-10T07:52:55.039Z,13.80
2023-05-10T07:55:29.702Z,14.43
2023-05-10T07:58:04.612Z,13.77
2023-05-10T08:00:40.693Z,15.37
2023-05-10T08:03:16.314Z,15.47
2023-05-10T08:05:50.136Z,15.67
2023-05-10T08:08:25.245Z,15.10
2023-05-10T08:10:58.990Z,14.30
2023-05-10T08:13:34.120Z,15.50
2023-05-10T08:16:08.582Z,15.80
2023-05-10T08:18:44.018Z,14.47
2023-05-10T08:21:18.433Z,13.43
2023-05-10T08:23:52.305Z,13.40
2023-05-10T08:26:25.962Z,13.87
2023-05-10T08:28:59.886Z,13.93
2023-05-10T08:31:33.812Z,14.80
2023-05-10T08:34:09.317Z,14.17
2023-05-10T08:36:43.409Z,13.87
2023-05-10T08:39:29.376Z,14.37
2023-05-10T08:42:07.225Z,12.93
2023-05-10T08:44:41.184Z,12.57
2023-05-10T08:47:19.066Z,11.27
2023-05-10T08:49:56.106Z,10.53
2023-05-10T08:52:32.708Z,9.67
2023-05-10T08:55:08.415Z,8.57
2023-05-10T08:57:42.325Z,8.13
2023-05-10T09:00:17.985Z,8.10
2023-05-10T09:02:53.359Z,7.57
2023-05-10T09:05:28.514Z,8.67
2023-05-10T09:08:02.647Z,8.90
2023-05-10T09:10:36.836Z,8.67
2023-05-10T09:13:13.972Z,9.00
2023-05-10T09:15:49.391Z,9.67
2023-05-10T09:18:23.465Z,9.00
2023-05-10T09:20:59.403Z,8.83
2023-05-10T09:23:33.418Z,7.50
2023-05-10T09:26:07.749Z,8.00
2023-05-10T09:28:55.385Z,8.20
2023-05-10T09:31:47.806Z,6.90
2023-05-10T09:34:23.228Z,7.30
2023-05-10T09:37:02.398Z,7.90
2023-05-10T09:39:37.723Z,7.50
2023-05-10T09:42:12.481Z,8.20
2023-05-10T09:44:49.364Z,7.90
2023-05-10T09:47:23.619Z,8.83
2023-05-10T09:50:00.180Z,8.37
2023-05-10T09:52:51.420Z,8.70
2023-05-10T09:55:27.149Z,9.40
2023-05-10T09:58:05.518Z,9.83
2023-05-10T10:00:41.896Z,8.90
2023-05-10T10:03:17.539Z,9.70
2023-05-10T10:05:52.534Z,10.10
2023-05-10T10:08:28.277Z,10.93
2023-05-10T10:11:02.722Z,10.60
2023-05-10T10:13:37.633Z,11.80
2023-05-10T10:16:12.135Z,11.30
2023-05-10T10:18:46.833Z,10.80
2023-05-10T10:21:21.846Z,10.37
2023-05-10T10:23:57.185Z,10.33
2023-05-10T10:26:31.990Z,9.70
2023-05-10T10:29:26.233Z,9.63
2023-05-10T10:32:13.386Z,9.63
2023-05-10T10:34:47.293Z,9.30
2023-05-10T10:37:21.526Z,9.03
2023-05-10T10:39:59.290Z,8.57
2023-05-10T10:42:51.034Z,8.73
2023-05-10T10:45:26.381Z,8.27
2023-05-10T10:48:24.978Z,8.50
2023-05-10T10:51:02.951Z,7.57
2023-05-10T10:53:37.193Z,8.97
2023-05-10T10:56:16.372Z,10.07
2023-05-10T10:58:54.936Z,9.83
2023-05-10T11:01:36.556Z,9.43
2023-05-10T11:04:22.713Z,9.43
2023-05-10T11:07:20.314Z,8.93
2023-05-10T11:09:54.323Z,7.93
2023-05-10T11:12:29.478Z,9.63
2023-05-10T11:15:03.632Z,9.00
2023-05-10T11:17:38.679Z,9.03
2023-05-10T11:20:16.829Z,8.13
2023-05-10T11:22:54.796Z,7.87
2023-05-10T11:25:30.440Z,8.30
2023-05-10T11:28:07.260Z,7.17
2023-05-10T11:30:42.362Z,7.47
2023-05-10T11:33:20.837Z,6.73
2023-05-10T11:35:54.564Z,6.50
2023-05-10T11:38:30.295Z,7.30
2023-05-10T11:41:04.443Z,6.47
2023-05-10T11:43:41.357Z,6.67
2023-05-10T11:46:16.375Z,6.30
2023-05-10T11:48:53.096Z,6.10
2023-05-10T11:51:28.249Z,5.97
2023-05-10T11:54:03.910Z,5.40
2023-05-10T11:56:38.709Z,5.93
2023-05-10T11:59:17.425Z,6.43
2023-05-10T12:01:51.947Z,6.90
2023-05-10T12:04:26.040Z,6.97
2023-05-10T12:07:00.364Z,6.80
2023-05-10T12:09:43.778Z,6.77
2023-05-10T12:12:20.316Z,7.43
2023-05-10T12:14:55.563Z,7.30
2023-05-10T12:17:31.648Z,7.13
2023-05-10T12:20:18.506Z,6.70
2023-05-10T12:22:55.585Z,6.67
2023-05-10T12:25:34.240Z,7.57
2023-05-10T12:28:11.137Z,6.73
2023-05-10T12:30:47.091Z,6.10
2023-05-10T12:33:21.002Z,6.50
2023-05-10T12:35:57.751Z,7.13
2023-05-10T12:38:35.956Z,6.50
2023-05-10T12:41:12.493Z,6.53
2023-05-10T12:43:48.165Z,6.70
2023-05-10T12:46:26.473Z,6.83
2023-05-10T12:49:08.419Z,7.17
2023-05-10T12:51:43.298Z,5.77
2023-05-10T12:54:17.296Z,6.57
2023-05-10T12:56:50.878Z,5.47
2023-05-10T12:59:24.685Z,6.07
2023-05-10T13:02:00.442Z,6.50
2023-05-10T13:04:35.074Z,6.30
2023-05-10T13:07:09.065Z,5.57
2023-05-10T13:09:43.023Z,6.87
2023-05-10T13:12:17.056Z,5.67
2023-05-10T13:14:50.993Z,5.43
2023-05-10T13:17:28.831Z,4.90
2023-05-10T13:20:02.477Z,4.13
2023-05-10T13:22:40.600Z,3.77
2023-05-10T13:25:15.552Z,4.10
2023-05-10T13:27:49.071Z,3.57
2023-05-10T13:30:22.825Z,3.77
2023-05-10T13:32:58.673Z,3.37
2023-05-10T13:35:32.370Z,3.30
2023-05-10T13:38:08.989Z,2.93
2023-05-10T13:40:42.900Z,2.80
2023-05-10T13:43:16.481Z,2.70
2023-05-10T13:45:50.505Z,2.90
2023-05-10T13:48:26.607Z,2.67
2023-05-10T13:51:00.738Z,2.77
2023-05-10T13:53:34.729Z,3.03
2023-05-10T13:56:09.239Z,2.83
2023-05-10T13:58:44.100Z,2.60
2023-05-10T14:01:17.640Z,2.67
2023-05-10T14:03:53.106Z,2.50
2023-05-10T14:06:28.017Z,2.10
2023-05-10T14:09:01.650Z,2.27
2023-05-10T14:11:35.285Z,2.60
2023-05-10T14:14:09.226Z,2.20
2023-05-10T14:16:46.558Z,2.47
2023-05-10T14:19:22.485Z,2.63
2023-05-10T14:21:56.583Z,3.13
2023-05-10T14:24:30.641Z,2.97
2023-05-10T14:27:04.062Z,3.17
2023-05-10T14:29:37.486Z,2.93
2023-05-10T14:32:11.555Z,3.13
2023-05-10T14:34:47.173Z,2.63
2023-05-10T14:37:21.159Z,2.83
2023-05-10T14:39:55.082Z,2.60
2023-05-10T14:42:29.509Z,2.63
2023-05-10T14:45:03.462Z,2.50
2023-05-10T14:47:37.206Z,2.47
2023-05-10T14:50:21.482Z,2.40
2023-05-10T14:53:06.183Z,2.40
2023-05-10T14:55:40.399Z,2.13
2023-05-10T14:58:15.258Z,2.10
2023-05-10T15:00:50.043Z,1.90
2023-05-10T15:03:24.627Z,2.53
2023-05-10T15:06:00.143Z,2.00
2023-05-10T15:08:33.700Z,2.40
2023-05-10T15:11:08.112Z,2.63
2023-05-10T15:13:41.927Z,2.53
2023-05-10T15:16:15.937Z,2.70
2023-05-10T15:18:50.223Z,2.53
2023-05-10T15:21:26.132Z,2.43
2023-05-10T15:23:59.649Z,2.53
2023-05-10T15:26:34.152Z,2.93
2023-05-10T15:29:08.066Z,3.03
2023-05-10T15:31:41.770Z,3.53
2023-05-10T15:34:16.381Z,4.10
2023-05-10T15:36:51.642Z,3.97
2023-05-10T15:39:25.351Z,4.10
2023-05-10T15:41:59.156Z,3.27
2023-05-10T15:44:33.121Z,3.27
2023-05-10T15:47:08.393Z,3.77
2023-05-10T15:49:42.458Z,3.73
2023-05-10T15:52:19.262Z,3.50
2023-05-10T15:54:53.168Z,3.63
2023-05-10T15:57:27.030Z,4.10
2023-05-10T16:00:01.397Z,3.87
2023-05-10T16:02:38.180Z,3.53
2023-05-10T16:05:12.396Z,3.57
2023-05-10T16:07:47.778Z,3.67
2023-05-10T16:10:21.876Z,4.30
2023-05-10T16:12:56.857Z,4.73
2023-05-10T16:15:30.744Z,4.17
2023-05-10T16:18:04.527Z,4.57
2023-05-10T16:20:38.709Z,4.67
2023-05-10T16:23:15.624Z,5.23
2023-05-10T16:25:49.166Z,5.07
2023-05-10T16:28:23.630Z,5.30
2023-05-10T16:30:57.782Z,5.53
2023-05-10T16:33:31.804Z,5.37
2023-05-10T16:36:06.586Z,8.60
2023-05-10T16:38:41.953Z,8.17
2023-05-10T16:41:15.436Z,6.30
2023-05-10T16:43:49.612Z,5.40
2023-05-10T16:46:23.304Z,6.23
2023-05-10T16:48:59.852Z,6.27
2023-05-10T16:51:35.115Z,6.93
2023-05-10T16:54:10.372Z,6.33
2023-05-10T16:56:44.305Z,5.57
2023-05-10T16:59:18.258Z,6.07
2023-05-10T17:01:53.582Z,5.60
2023-05-10T17:04:27.307Z,4.77
2023-05-10T17:07:00.824Z,4.77
2023-05-10T17:09:36.600Z,4.33
2023-05-10T17:12:10.259Z,4.50
2023-05-10T17:14:44.740Z,3.83
2023-05-10T17:17:18.533Z,3.43
2023-05-10T17:19:52.389Z,3.50
2023-05-10T17:22:26.818Z,3.03
2023-05-10T17:25:02.378Z,3.00
2023-05-10T17:27:35.843Z,3.53
2023-05-10T17:30:12.086Z,3.47
2023-05-10T17:32:45.824Z,3.00
2023-05-10T17:35:22.586Z,2.67
2023-05-10T17:37:57.847Z,3.00
2023-05-10T17:40:33.411Z,2.93
2023-05-10T17:43:07.054Z,2.93
2023-05-10T17:45:41.943Z,2.50
2023-05-10T17:48:16.163Z,2.50
2023-05-10T17:50:52.771Z,2.50
2023-05-10T17:53:27.029Z,2.30
2023-05-10T17:56:01.812Z,2.30
2023-05-10T17:58:38.256Z,1.80
2023-05-10T18:01:12.555Z,2.17
2023-05-10T18:03:46.655Z,2.60
2023-05-10T18:06:21.249Z,2.43
2023-05-10T18:08:54.647Z,2.13
2023-05-10T18:11:29.761Z,1.90
2023-05-10T18:14:05.053Z,2.27
2023-05-10T18:16:38.944Z,2.37
2023-05-10T18:19:12.702Z,2.07
2023-05-10T18:21:46.320Z,2.50
2023-05-10T18:24:30.520Z,1.93
2023-05-10T18:27:13.446Z,1.87
2023-05-10T18:29:48.127Z,2.07
2023-05-10T18:32:21.882Z,2.03
2023-05-10T18:34:56.996Z,1.90
2023-05-10T18:37:30.858Z,2.23
2023-05-10T18:40:05.339Z,2.00
2023-05-10T18:42:40.317Z,1.70
2023-05-10T18:45:14.635Z,1.63
2023-05-10T18:47:48.590Z,1.53
2023-05-10T18:50:22.662Z,1.87
2023-05-10T18:52:57.082Z,2.00
2023-05-10T18:55:31.957Z,1.90
2023-05-10T18:58:08.548Z,2.20
2023-05-10T19:00:42.699Z,2.23
2023-05-10T19:03:16.333Z,2.40
2023-05-10T19:05:50.327Z,2.70
2023-05-10T19:08:25.465Z,2.40
2023-05-10T19:11:01.269Z,2.73
2023-05-10T19:13:36.829Z,3.03
2023-05-10T19:16:16.031Z,2.80
2023-05-10T19:18:51.262Z,2.80
2023-05-10T19:21:26.067Z,2.87
2023-05-10T19:24:01.400Z,2.87
2023-05-10T19:26:36.273Z,2.97
2023-05-10T19:29:12.313Z,3.27
2023-05-10T19:31:48.151Z,3.07
2023-05-10T19:34:22.262Z,3.00
2023-05-10T19:36:57.935Z,3.50
2023-05-10T19:39:33.767Z,3.20
2023-05-10T19:42:07.294Z,3.30
2023-05-10T19:44:42.668Z,2.97
2023-05-10T19:47:16.856Z,3.07
2023-05-10T19:49:50.612Z,3.40
2023-05-10T19:52:24.225Z,3.10
2023-05-10T19:54:58.849Z,2.80
2023-05-10T19:57:32.675Z,3.23
2023-05-10T20:00:11.988Z,3.13
2023-05-10T20:02:45.612Z,3.00
2023-05-10T20:05:19.823Z,3.20
2023-05-10T20:07:53.782Z,3.13
2023-05-10T20:10:29.241Z,3.37
2023-05-10T20:13:03.237Z,2.97
2023-05-10T20:15:38.249Z,3.37
2023-05-10T20:18:11.992Z,2.83
2023-05-10T20:20:46.586Z,2.97
2023-05-10T20:23:20.234Z,3.37
2023-05-10T20:25:55.133Z,3.20
2023-05-10T20:28:31.372Z,3.10
2023-05-10T20:31:06.834Z,2.97
2023-05-10T20:33:40.989Z,3.20
2023-05-10T20:36:15.291Z,3.57
2023-05-10T20:38:48.875Z,4.00
2023-05-10T20:41:23.177Z,3.37
2023-05-10T20:43:57.400Z,3.40
2023-05-10T20:46:33.173Z,3.43
2023-05-10T20:49:07.117Z,4.17
2023-05-10T20:51:41.128Z,3.70
2023-05-10T20:54:14.686Z,3.50
2023-05-10T20:56:48.628Z,3.50
2023-05-10T20:59:22.695Z,3.87
2023-05-10T21:01:58.976Z,4.00
2023-05-10T21:04:33.096Z,4.13
2023-05-10T21:07:06.650Z,3.73
2023-05-10T21:09:40.522Z,3.50
2023-05-10T21:12:15.232Z,3.60
2023-05-10T21:14:49.681Z,3.57
2023-05-10T21:17:24.861Z,3.80
2023-05-10T21:19:58.974Z,3.33
2023-05-10T21:22:32.406Z,3.40
2023-05-10T21:25:07.143Z,3.40
2023-05-10T21:27:41.230Z,3.37
2023-05-10T21:30:15.602Z,3.63
2023-05-10T21:32:50.944Z,3.43
2023-05-10T21:35:25.024Z,3.50
2023-05-10T21:37:58.801Z,3.67
2023-05-10T21:40:32.525Z,3.27
2023-05-10T21:43:06.677Z,3.77
2023-05-10T21:45:40.912Z,3.50
2023-05-10T21:48:16.296Z,3.77
2023-05-10T21:50:49.905Z,4.33
2023-05-10T21:53:23.675Z,3.53
2023-05-10T21:55:57.545Z,3.80
2023-05-10T21:58:31.176Z,4.20
2023-05-10T22:01:05.137Z,3.83
2023-05-10T22:03:41.030Z,4.10
2023-05-10T22:06:14.787Z,4.20
2023-05-10T22:08:48.554Z,4.60
2023-05-10T22:11:22.694Z,4.27
2023-05-10T22:13:56.246Z,4.13
2023-05-10T22:16:30.142Z,4.17
2023-05-10T22:19:05.735Z,4.13
2023-05-10T22:21:39.328Z,4.13
2023-05-10T22:24:13.317Z,4.23
2023-05-10T22:26:47.347Z,4.57
2023-05-10T22:29:21.053Z,4.67
2023-05-10T22:31:55.472Z,5.03
2023-05-10T22:34:30.751Z,5.37
2023-05-10T22:37:05.664Z,5.50
2023-05-10T22:39:39.465Z,5.93
2023-05-10T22:42:13.366Z,5.77
2023-05-10T22:44:48.106Z,5.77
2023-05-10T22:47:21.744Z,7.27
2023-05-10T22:49:58.339Z,6.67
2023-05-10T22:52:32.092Z,7.20
2023-05-10T22:55:07.321Z,6.70
2023-05-10T22:57:41.226Z,8.03
2023-05-10T23:00:16.898Z,7.33
2023-05-10T23:02:53.070Z,7.23
2023-05-10T23:05:28.346Z,6.80
2023-05-10T23:08:02.384Z,6.17
2023-05-10T23:10:37.880Z,7.20
2023-05-10T23:13:11.838Z,6.43
2023-05-10T23:15:47.212Z,7.00
2023-05-10T23:18:21.132Z,6.97
2023-05-10T23:20:58.654Z,7.37
2023-05-10T23:23:37.703Z,6.97
2023-05-10T23:26:11.730Z,7.97
2023-05-10T23:28:45.423Z,8.33
2023-05-10T23:31:20.526Z,7.00
2023-05-10T23:33:54.652Z,7.83
2023-05-10T23:36:31.119Z,7.63
2023-05-10T23:39:05.074Z,6.93
2023-05-10T23:41:39.264Z,8.30
2023-05-10T23:44:12.839Z,8.17
2023-05-10T23:46:47.068Z,8.73
2023-05-10T23:49:20.836Z,8.57
2023-05-10T23:51:56.225Z,8.27
2023-05-10T23:54:30.222Z,9.07
2023-05-10T23:57:05.672Z,8.37
2023-05-10T23:59:39.506Z,8.87
